Portada
METAR-TAF:

METAR-TAF

Aeroports :

Roi Et, Tailàndia

latitud: 16-07-00N, longitud: 103-46-26E, altitud: 138 m

Observació

L'informe es va fer fa 30 minuts, a les 13:00 UTC
Vent 6 kt del Sud/Sud-Est
Temperatura 28°C
Humitat 84%
Pressió 1006 hPa
Visibilitat 10 km o més
Escasses núvols a una alçada de 3500 ft

METAR: VTUV 141300Z 15006KT 9999 FEW035 28/25 Q1006 NOSIG

Hora: 20:30 (13:30 UTC)

Pronòstic

L'informe es va fer fa 2 hores i 30 minuts, a les 11:00 UTC
Pronòstic vàlid del 14 a les 12 UTC al 15 a les 12 UTC
Vent 5 kt del Sud
Visibilitat: 9000 m
Núvols disperses a una alçada de 3000 ft
Temporalment
l' 15 a les 07 UTC al 15 a les 11 UTC
Vent 15 kt amb direcció variable
Visibilitat: 4500 m
Escasses núvols a una alçada de 1800 ft, Cumulonimbus.
tempesta, pluja

TAF: VTUV 141100Z 1412/1512 19005KT 9000 SCT030 TEMPO 1507/1511 VRB15KT 4500 TSRA FEW018CB

Observacions i pronòstics meteorològics de més de 4000 aeroports (METAR i TAF).

Les estacions disponibles són els punts grocs i vermells al mapa.

Posi el ratolí al punt desitjat per veure el nom de l'estació.

Feu clic per veure les observacions i els pronòstics meteorològics.

Per canviar el mapa: feu clic els botons verds amb una creu de color negre per apropar; al botó verd amb un guió per allunyar la imatge; o en les fletxes verdes per a mapes adjacents.


METAR-TAF: